createdAt,value
2022-07-29T00:02:37.821Z,19.77
2022-07-29T00:08:42.963Z,19.67
2022-07-29T00:14:46.666Z,19.57
2022-07-29T00:20:52.198Z,19.62
2022-07-29T00:26:57.181Z,19.61
2022-07-29T00:33:00.799Z,19.67
2022-07-29T00:39:05.098Z,19.86
2022-07-29T00:45:11.006Z,19.48
2022-07-29T00:51:15.217Z,19.55
2022-07-29T00:57:18.931Z,19.39
2022-07-29T01:03:24.136Z,19.24
2022-07-29T01:09:34.992Z,19.32
2022-07-29T01:15:56.859Z,19.39
2022-07-29T01:22:15.934Z,19.25
2022-07-29T01:28:42.534Z,19.26
2022-07-29T01:34:52.624Z,19.09
2022-07-29T01:41:03.536Z,19.14
2022-07-29T01:47:16.264Z,19.20
2022-07-29T01:53:29.097Z,19.28
2022-07-29T01:59:43.082Z,19.13
2022-07-29T02:05:50.587Z,18.93
2022-07-29T02:11:56.794Z,18.98
2022-07-29T02:18:04.254Z,18.93
2022-07-29T02:24:12.615Z,18.78
2022-07-29T02:30:16.646Z,18.84
2022-07-29T02:36:23.445Z,18.90
2022-07-29T02:42:30.747Z,19.00
2022-07-29T02:48:39.606Z,18.94
2022-07-29T02:54:47.106Z,18.81
2022-07-29T03:00:53.871Z,18.91
2022-07-29T03:07:01.839Z,18.73
2022-07-29T03:13:07.468Z,18.80
2022-07-29T03:19:13.074Z,18.88
2022-07-29T03:25:18.110Z,18.99
2022-07-29T03:31:21.814Z,19.20
2022-07-29T03:37:26.875Z,19.13
2022-07-29T03:43:33.135Z,19.16
2022-07-29T03:49:39.812Z,19.34
2022-07-29T03:55:47.827Z,19.19
2022-07-29T04:01:52.354Z,19.27
2022-07-29T04:07:55.683Z,19.31
2022-07-29T04:14:00.600Z,19.33
2022-07-29T04:20:04.504Z,19.44
2022-07-29T04:26:10.657Z,19.51
2022-07-29T04:32:15.840Z,19.53
2022-07-29T04:38:19.434Z,19.52
2022-07-29T04:44:28.452Z,19.65
2022-07-29T04:50:34.068Z,19.87
2022-07-29T04:56:37.628Z,19.84
2022-07-29T05:02:41.471Z,19.93
2022-07-29T05:08:46.548Z,19.89
2022-07-29T05:14:50.079Z,19.86
2022-07-29T05:20:53.899Z,19.93
2022-07-29T05:26:58.863Z,19.98
2022-07-29T05:33:02.383Z,19.98
2022-07-29T05:39:05.910Z,20.00
2022-07-29T05:45:11.921Z,20.02
2022-07-29T05:51:15.494Z,20.09
2022-07-29T05:57:19.733Z,20.19
2022-07-29T06:03:24.677Z,20.08
2022-07-29T06:09:29.319Z,20.28
2022-07-29T06:15:33.018Z,20.34
2022-07-29T06:21:38.700Z,20.32
2022-07-29T06:27:45.762Z,20.35
2022-07-29T06:33:49.366Z,20.48
2022-07-29T06:40:14.338Z,20.53
2022-07-29T06:46:18.900Z,20.58
2022-07-29T06:52:22.561Z,20.56
2022-07-29T06:58:28.172Z,20.64
2022-07-29T07:04:31.762Z,20.59
2022-07-29T07:10:35.934Z,20.74
2022-07-29T07:16:40.933Z,20.70
2022-07-29T07:22:44.678Z,20.75
2022-07-29T07:28:48.217Z,20.80
2022-07-29T07:34:53.177Z,20.92
2022-07-29T07:40:56.804Z,20.88
2022-07-29T07:47:08.458Z,20.96
2022-07-29T07:53:14.106Z,21.06
2022-07-29T07:59:17.829Z,21.09
2022-07-29T08:05:23.790Z,21.15
2022-07-29T08:11:28.925Z,21.16
2022-07-29T08:17:37.723Z,21.21
2022-07-29T08:23:50.582Z,21.23
2022-07-29T08:29:59.598Z,21.25
2022-07-29T08:36:03.370Z,21.29
2022-07-29T08:42:08.031Z,21.35
2022-07-29T08:48:13.979Z,21.36
2022-07-29T08:54:20.441Z,21.43
2022-07-29T09:00:25.650Z,21.45
2022-07-29T09:06:35.001Z,21.49
2022-07-29T09:12:39.013Z,21.51
2022-07-29T09:18:44.076Z,21.54
2022-07-29T09:24:49.611Z,21.57
2022-07-29T09:30:54.980Z,21.58
2022-07-29T09:36:58.913Z,21.62
2022-07-29T09:43:12.458Z,21.66
2022-07-29T09:49:18.887Z,21.69
2022-07-29T09:55:22.550Z,21.73
2022-07-29T10:01:31.469Z,21.74
2022-07-29T10:07:53.487Z,21.71
2022-07-29T10:13:57.662Z,21.79
2022-07-29T10:20:02.848Z,21.81
2022-07-29T10:26:06.972Z,21.77
2022-07-29T10:32:32.874Z,21.77
2022-07-29T10:38:53.428Z,21.77
2022-07-29T10:44:59.160Z,21.82
2022-07-29T10:51:05.516Z,21.82
2022-07-29T10:57:20.751Z,21.81
2022-07-29T11:03:49.468Z,21.89
2022-07-29T11:10:26.977Z,21.96
2022-07-29T11:17:06.926Z,21.98
2022-07-29T11:23:26.275Z,22.01
2022-07-29T11:29:30.626Z,22.06
2022-07-29T11:35:38.355Z,22.10
2022-07-29T11:41:44.659Z,22.13
2022-07-29T11:47:53.702Z,22.15
2022-07-29T11:54:04.255Z,22.18
2022-07-29T12:00:12.690Z,22.22
2022-07-29T12:06:21.032Z,22.23
2022-07-29T12:12:26.206Z,22.34
2022-07-29T12:18:29.747Z,22.38
2022-07-29T12:24:45.460Z,22.40
2022-07-29T12:30:52.959Z,22.51
2022-07-29T12:36:56.793Z,22.58
2022-07-29T12:43:11.458Z,22.67
2022-07-29T12:49:24.872Z,22.75
2022-07-29T12:55:42.060Z,22.86
2022-07-29T13:01:48.131Z,22.89
2022-07-29T13:07:55.562Z,23.00
2022-07-29T13:14:06.816Z,23.00
2022-07-29T13:20:15.189Z,22.95
2022-07-29T13:26:20.768Z,22.97
2022-07-29T13:32:28.516Z,22.99
2022-07-29T13:38:32.548Z,23.07
2022-07-29T13:44:37.631Z,23.15
2022-07-29T13:50:41.141Z,23.09
2022-07-29T13:56:44.717Z,23.21
2022-07-29T14:02:51.381Z,23.38
2022-07-29T14:08:54.958Z,23.41
2022-07-29T14:14:58.542Z,23.25
2022-07-29T14:21:03.757Z,23.13
2022-07-29T14:27:07.678Z,23.10
2022-07-29T14:33:11.185Z,23.05
2022-07-29T14:39:16.754Z,23.03
2022-07-29T14:45:20.287Z,23.19
2022-07-29T14:51:23.851Z,23.41
2022-07-29T14:57:37.274Z,23.49
2022-07-29T15:03:40.871Z,23.45
2022-07-29T15:09:49.535Z,23.47
2022-07-29T15:15:59.930Z,23.46
2022-07-29T15:22:05.880Z,23.44
2022-07-29T15:28:09.877Z,23.39
2022-07-29T15:34:14.834Z,23.39
2022-07-29T15:40:18.472Z,23.33
2022-07-29T15:46:40.070Z,23.27
2022-07-29T15:52:45.194Z,23.33
2022-07-29T15:58:48.821Z,23.44
2022-07-29T16:04:52.601Z,23.32
2022-07-29T16:10:57.720Z,23.24
2022-07-29T16:17:03.838Z,23.36
2022-07-29T16:23:09.494Z,23.37
2022-07-29T16:29:15.074Z,23.23
2022-07-29T16:35:19.323Z,23.22
2022-07-29T16:41:22.935Z,23.29
2022-07-29T16:47:27.934Z,23.06
2022-07-29T16:53:31.455Z,23.06
2022-07-29T16:59:35.274Z,23.04
2022-07-29T17:05:50.775Z,23.10
2022-07-29T17:11:57.656Z,23.17
2022-07-29T17:18:03.172Z,23.15
2022-07-29T17:24:17.774Z,23.24
2022-07-29T17:30:21.346Z,23.27
2022-07-29T17:36:24.885Z,23.27
2022-07-29T17:42:29.801Z,23.35
2022-07-29T17:48:33.342Z,23.29
2022-07-29T17:54:36.921Z,23.37
2022-07-29T18:00:42.214Z,23.35
2022-07-29T18:06:45.859Z,23.37
2022-07-29T18:12:49.471Z,23.40
2022-07-29T18:18:54.776Z,23.39
2022-07-29T18:24:58.389Z,23.43
2022-07-29T18:31:02.492Z,23.52
2022-07-29T18:37:07.831Z,23.52
2022-07-29T18:43:12.319Z,23.46
2022-07-29T18:49:16.348Z,23.39
2022-07-29T18:55:21.891Z,23.55
2022-07-29T19:01:25.628Z,23.64
2022-07-29T19:07:36.151Z,23.62
2022-07-29T19:13:41.471Z,24.05
2022-07-29T19:19:45.125Z,24.28
2022-07-29T19:25:53.511Z,24.31
2022-07-29T19:32:00.355Z,24.31
2022-07-29T19:38:07.350Z,24.12
2022-07-29T19:44:11.457Z,24.02
2022-07-29T19:50:17.294Z,24.09
2022-07-29T19:56:21.208Z,23.79
2022-07-29T20:02:24.570Z,23.66
2022-07-29T20:08:29.554Z,23.60
2022-07-29T20:14:33.140Z,23.60
2022-07-29T20:20:38.173Z,23.41
2022-07-29T20:26:43.996Z,23.38
2022-07-29T20:32:50.948Z,23.72
2022-07-29T20:39:00.641Z,23.87
2022-07-29T20:45:09.165Z,24.01
2022-07-29T20:51:17.041Z,24.04
2022-07-29T20:57:38.479Z,24.12
2022-07-29T21:03:45.192Z,24.15
2022-07-29T21:09:48.749Z,24.20
2022-07-29T21:15:56.845Z,24.19
2022-07-29T21:22:02.017Z,24.20
2022-07-29T21:28:23.214Z,24.25
2022-07-29T21:34:28.111Z,24.24
2022-07-29T21:40:33.135Z,24.26
2022-07-29T21:46:36.824Z,24.06
2022-07-29T21:52:40.445Z,23.93
2022-07-29T21:58:45.402Z,23.84
2022-07-29T22:04:49.031Z,23.80
2022-07-29T22:10:52.644Z,23.77
2022-07-29T22:16:58.001Z,23.72
2022-07-29T22:23:02.015Z,23.70
2022-07-29T22:29:05.609Z,23.71
2022-07-29T22:35:10.964Z,23.71
2022-07-29T22:41:15.585Z,23.66
2022-07-29T22:47:19.290Z,23.64
2022-07-29T22:53:44.198Z,23.62
2022-07-29T22:59:47.785Z,23.60
2022-07-29T23:05:52.446Z,23.55
2022-07-29T23:11:57.400Z,23.53
2022-07-29T23:18:00.988Z,23.49
2022-07-29T23:24:04.681Z,23.49
2022-07-29T23:30:11.020Z,23.47
2022-07-29T23:36:14.541Z,23.40
2022-07-29T23:42:18.081Z,23.40
2022-07-29T23:48:23.024Z,23.34
2022-07-29T23:54:26.591Z,23.34
